Time;durP1;ratioP1;P1;durP2;ratioP2;P2;SDS_P1;SDS_P2;PMS_P1;PMS_P2;Temp;Humidity;BMP_temperature;BMP_pressure;BME280_temperature;BME280_humidity;BME280_pressure;Samples;Min_cycle;Max_cycle;Signal;HPM_P1;HPM_P2
2022/02/05 00:00:31;;;;;;;18.38;5.68;;;5.50;79.40;;;;;;5111388;28;20187;-89
2022/02/05 00:06:01;;;;;;;7.30;5.28;;;5.60;79.40;;;;;;5096255;28;20270;-89
2022/02/05 00:38:19;;;;;;;15.68;5.68;;;5.10;80.00;;;;;;5104028;28;20166;-87
2022/02/05 00:41:00;;;;;;;15.77;5.40;;;5.10;80.10;;;;;;5095284;28;20175;-89
2022/02/05 00:43:29;;;;;;;16.13;5.32;;;5.10;80.10;;;;;;5094072;28;20196;-89
2022/02/05 00:45:56;;;;;;;7.47;4.28;;;5.10;80.10;;;;;;5093727;28;20204;-89
2022/02/05 00:48:23;;;;;;;14.90;7.57;;;5.10;80.10;;;;;;5094765;28;20176;-88
2022/02/05 00:50:57;;;;;;;7.55;4.32;;;5.10;80.10;;;;;;5098814;28;20592;-87
2022/02/05 00:53:35;;;;;;;8.10;3.85;;;5.10;80.20;;;;;;5096135;28;20624;-89
2022/02/05 00:58:36;;;;;;;9.38;4.90;;;5.20;79.80;;;;;;5095536;28;20163;-88
2022/02/05 01:01:02;;;;;;;9.95;4.00;;;5.10;79.90;;;;;;5107000;28;20213;-87
2022/02/05 01:03:27;;;;;;;8.87;4.20;;;5.10;79.80;;;;;;5105978;28;20207;-88
2022/02/05 01:05:53;;;;;;;9.73;4.37;;;5.20;79.60;;;;;;5093804;28;20229;-88
2022/02/05 01:08:19;;;;;;;5.90;3.20;;;5.10;79.60;;;;;;5093777;28;20236;-88
2022/02/05 01:10:45;;;;;;;7.17;3.93;;;5.00;79.60;;;;;;5094111;28;20525;-88
2022/02/05 01:13:12;;;;;;;11.90;4.43;;;5.10;79.80;;;;;;5093988;28;20668;-88
2022/02/05 01:15:46;;;;;;;11.50;4.10;;;5.10;79.80;;;;;;5095135;28;20426;-88
2022/02/05 01:18:14;;;;;;;4.47;3.67;;;5.10;79.70;;;;;;5095238;28;20167;-88
2022/02/05 01:23:19;;;;;;;10.23;4.38;;;5.20;79.60;;;;;;5094838;28;20234;-88
2022/02/05 01:25:53;;;;;;;9.13;3.92;;;5.20;79.30;;;;;;5097064;28;20181;-87
2022/02/05 01:28:26;;;;;;;5.47;3.92;;;5.10;79.40;;;;;;5101114;28;20199;-86
2022/02/05 01:30:54;;;;;;;11.93;3.88;;;5.20;79.50;;;;;;5097768;28;20259;-88
2022/02/05 01:58:19;;;;;;;12.05;4.30;;;5.00;79.90;;;;;;5098626;28;20218;-88
2022/02/05 02:11:44;;;;;;;12.52;4.82;;;4.80;80.20;;;;;;5097989;28;20698;-88
2022/02/05 02:24:54;;;;;;;8.60;2.93;;;4.70;80.20;;;;;;5098337;28;20180;-88
2022/02/05 02:32:25;;;;;;;5.78;3.30;;;4.80;80.10;;;;;;5097965;28;20204;-87
2022/02/05 02:34:55;;;;;;;7.10;3.17;;;4.90;80.10;;;;;;5096065;28;20694;-88
2022/02/05 02:37:29;;;;;;;5.78;3.30;;;4.80;79.90;;;;;;5096033;28;20176;-87
2022/02/05 02:40:16;;;;;;;8.38;3.85;;;4.80;80.00;;;;;;5096029;28;20207;-87
2022/02/05 02:42:47;;;;;;;7.35;2.80;;;4.80;80.10;;;;;;5096329;28;20613;-87
2022/02/05 02:45:12;;;;;;;5.32;2.83;;;4.90;80.10;;;;;;5096417;28;20168;-88
2022/02/05 02:47:43;;;;;;;5.37;3.40;;;4.90;80.00;;;;;;5098001;28;20175;-87
2022/02/05 02:50:32;;;;;;;10.77;3.60;;;4.90;79.90;;;;;;5095796;28;20300;-87
2022/02/05 02:58:30;;;;;;;12.65;3.80;;;4.80;79.80;;;;;;5118743;28;20187;-86
2022/02/05 03:00:58;;;;;;;17.13;3.35;;;4.80;79.90;;;;;;5100574;28;20183;-88
2022/02/05 03:03:25;;;;;;;9.32;2.92;;;4.80;80.00;;;;;;5097494;28;20233;-88
2022/02/05 03:05:51;;;;;;;8.15;3.35;;;4.80;80.70;;;;;;5097314;28;20562;-88
2022/02/05 03:08:17;;;;;;;7.83;3.30;;;4.80;80.00;;;;;;5095932;28;20176;-88
2022/02/05 03:10:42;;;;;;;10.40;3.10;;;4.90;80.00;;;;;;5097064;28;20265;-87
2022/02/05 03:13:08;;;;;;;4.83;2.53;;;4.90;80.00;;;;;;5100895;28;20446;-87
2022/02/05 03:15:42;;;;;;;4.33;2.87;;;4.80;79.90;;;;;;5101124;28;20172;-86
2022/02/05 03:18:13;;;;;;;5.85;3.33;;;4.70;80.10;;;;;;5099707;28;20199;-87
2022/02/05 03:20:39;;;;;;;7.85;2.90;;;4.70;80.20;;;;;;5101747;28;20175;-88
2022/02/05 03:23:05;;;;;;;10.63;3.83;;;4.70;80.30;;;;;;5100935;28;20192;-86
2022/02/05 03:25:32;;;;;;;3.70;3.40;;;4.70;80.40;;;;;;5096483;28;20414;-86
2022/02/05 03:27:58;;;;;;;3.45;2.58;;;4.80;80.30;;;;;;5097386;28;20699;-86
2022/02/05 03:30:25;;;;;;;7.63;3.70;;;4.80;80.90;;;;;;5099253;28;20227;-86
2022/02/05 03:32:51;;;;;;;18.40;4.45;;;4.80;80.10;;;;;;5099440;28;20191;-86
2022/02/05 03:35:16;;;;;;;12.73;3.60;;;4.90;80.10;;;;;;5097119;28;20602;-85
2022/02/05 03:37:43;;;;;;;9.50;3.63;;;4.80;80.00;;;;;;5096502;28;20414;-86
2022/02/05 03:40:09;;;;;;;10.10;4.00;;;4.70;80.10;;;;;;5095809;28;20179;-87
2022/02/05 03:42:35;;;;;;;5.28;3.03;;;4.80;80.20;;;;;;5095677;28;20196;-87
2022/02/05 03:45:02;;;;;;;6.70;3.63;;;4.70;80.30;;;;;;5097584;28;20550;-87
2022/02/05 03:47:31;;;;;;;7.03;3.50;;;4.70;80.40;;;;;;5098055;28;20176;-87
2022/02/05 03:49:57;;;;;;;17.38;3.97;;;4.70;80.50;;;;;;5107241;28;20168;-87
2022/02/05 03:52:23;;;;;;;16.85;4.32;;;4.70;80.60;;;;;;5109908;28;20666;-87
2022/02/05 03:54:48;;;;;;;4.00;2.70;;;4.70;80.60;;;;;;5094657;28;20171;-87
2022/02/05 03:57:14;;;;;;;3.63;2.67;;;4.70;80.60;;;;;;5094686;28;20289;-86
2022/02/05 03:59:40;;;;;;;7.33;2.93;;;4.70;80.50;;;;;;5094801;28;20263;-87
2022/02/05 04:02:06;;;;;;;9.57;3.30;;;4.80;80.60;;;;;;5096239;28;20179;-87
2022/02/05 04:04:32;;;;;;;6.83;3.17;;;4.80;80.70;;;;;;5096886;28;20184;-87
2022/02/05 04:06:57;;;;;;;17.13;4.10;;;4.70;80.90;;;;;;5096543;28;20788;-86
2022/02/05 04:09:29;;;;;;;9.90;3.13;;;4.80;80.80;;;;;;5095448;28;20222;-87
2022/02/05 04:15:56;;;;;;;9.43;3.60;;;4.80;80.80;;;;;;5095638;28;20628;-87
2022/02/05 04:17:25;;;;;;;12.95;3.78;;;4.70;80.80;;;;;;5095686;28;20183;-87
2022/02/05 04:19:50;;;;;;;18.57;5.20;;;4.70;80.80;;;;;;5095246;28;20168;-86
2022/02/05 04:22:16;;;;;;;9.23;3.00;;;4.70;80.80;;;;;;5095708;28;20246;-87
2022/02/05 04:24:42;;;;;;;7.70;3.80;;;4.60;80.80;;;;;;5095190;28;20229;-87
2022/02/05 04:27:10;;;;;;;7.60;3.93;;;4.60;81.00;;;;;;5095396;28;20422;-86
2022/02/05 04:29:36;;;;;;;13.25;4.10;;;4.60;81.10;;;;;;5094433;28;20628;-88
2022/02/05 04:32:03;;;;;;;15.82;4.43;;;4.50;81.20;;;;;;5096246;28;20200;-86
2022/02/05 04:34:29;;;;;;;13.95;3.95;;;4.60;81.30;;;;;;5093684;28;20175;-86
2022/02/05 04:36:55;;;;;;;6.53;3.90;;;4.50;81.40;;;;;;5094009;28;20181;-87
2022/02/05 04:39:22;;;;;;;13.95;3.90;;;4.50;81.50;;;;;;5095925;28;20172;-86
2022/02/05 04:41:57;;;;;;;7.47;3.30;;;4.50;81.70;;;;;;5099765;28;20192;-86
2022/02/05 04:50:35;;;;;;;9.10;3.55;;;4.40;82.00;;;;;;5092352;28;20176;-86
2022/02/05 04:55:58;;;;;;;9.35;3.20;;;4.40;82.10;;;;;;5094998;28;20156;-87
2022/02/05 05:06:10;;;;;;;8.40;3.00;;;4.30;82.30;;;;;;5095195;28;20168;-86
2022/02/05 05:08:53;;;;;;;8.40;3.10;;;4.30;82.50;;;;;;5095387;28;20177;-86
2022/02/05 05:21:47;;;;;;;6.18;3.63;;;4.30;82.80;;;;;;5094918;28;20195;-87
2022/02/05 05:24:12;;;;;;;9.23;3.90;;;4.30;82.80;;;;;;5094110;28;20191;-86
2022/02/05 05:26:38;;;;;;;7.80;3.20;;;4.30;82.90;;;;;;5093283;28;20176;-86
2022/02/05 05:29:04;;;;;;;6.57;2.97;;;4.50;82.80;;;;;;5093024;28;20658;-87
2022/02/05 05:31:30;;;;;;;15.55;3.50;;;4.40;82.60;;;;;;5093426;28;20290;-87
2022/02/05 05:33:56;;;;;;;14.27;3.63;;;4.40;82.60;;;;;;5096082;28;20654;-87
2022/02/05 05:36:23;;;;;;;10.93;4.67;;;4.40;82.80;;;;;;5093915;28;20596;-87
2022/02/05 05:38:49;;;;;;;13.13;3.78;;;4.30;82.90;;;;;;5104773;28;20184;-86
2022/02/05 05:41:15;;;;;;;10.83;4.00;;;4.30;83.00;;;;;;5098411;28;20283;-84
2022/02/05 05:46:31;;;;;;;6.32;3.10;;;4.20;83.20;;;;;;5099276;28;20421;-84
2022/02/05 05:49:10;;;;;;;17.13;3.75;;;4.20;83.20;;;;;;5099446;28;20179;-84
2022/02/05 05:51:36;;;;;;;6.10;3.40;;;4.20;83.30;;;;;;5100902;28;20206;-84
2022/02/05 05:54:02;;;;;;;7.72;3.17;;;4.30;83.40;;;;;;5100190;28;20214;-84
2022/02/05 05:56:28;;;;;;;11.10;3.63;;;4.30;83.40;;;;;;5108590;28;20180;-85
2022/02/05 05:58:53;;;;;;;8.93;3.90;;;4.30;83.40;;;;;;5112845;28;20504;-84
2022/02/05 06:01:19;;;;;;;6.83;3.77;;;4.30;83.30;;;;;;5096613;28;20176;-83
2022/02/05 06:03:45;;;;;;;9.80;3.47;;;4.30;83.50;;;;;;5094712;28;20441;-83
2022/02/05 06:06:10;;;;;;;15.07;3.30;;;4.40;83.40;;;;;;5095015;28;20176;-84
2022/02/05 06:08:36;;;;;;;6.97;3.27;;;4.40;83.20;;;;;;5092766;28;20180;-84
2022/02/05 06:11:02;;;;;;;7.00;3.30;;;4.40;84.00;;;;;;5096188;28;20227;-84
2022/02/05 06:13:28;;;;;;;9.23;4.17;;;4.40;83.30;;;;;;5098262;28;20572;-85
2022/02/05 06:15:56;;;;;;;10.80;3.73;;;4.50;83.30;;;;;;5098522;28;20437;-84
2022/02/05 06:18:21;;;;;;;7.65;3.28;;;4.40;83.20;;;;;;5101286;28;20434;-85
2022/02/05 06:20:47;;;;;;;8.13;4.23;;;4.30;83.20;;;;;;5098917;28;20190;-84
2022/02/05 06:23:13;;;;;;;7.83;3.53;;;4.30;83.40;;;;;;5096521;28;20229;-84
2022/02/05 06:25:41;;;;;;;3.97;3.13;;;4.30;83.40;;;;;;5098041;28;20184;-84
2022/02/05 06:28:09;;;;;;;8.35;3.63;;;4.40;83.50;;;;;;5099940;28;20263;-84
2022/02/05 06:30:36;;;;;;;11.57;3.92;;;4.40;83.50;;;;;;5099529;28;20203;-84
2022/02/05 06:33:02;;;;;;;12.80;3.28;;;4.30;83.40;;;;;;5099923;28;20216;-84
2022/02/05 06:35:28;;;;;;;19.35;4.10;;;4.30;83.60;;;;;;5102765;28;20183;-84
2022/02/05 06:37:54;;;;;;;9.60;3.90;;;4.40;83.60;;;;;;5106304;28;20178;-84
2022/02/05 06:40:19;;;;;;;6.23;3.10;;;4.30;83.60;;;;;;5101348;28;20639;-84
2022/02/05 06:42:46;;;;;;;7.37;4.03;;;4.30;83.70;;;;;;5099646;28;20230;-85
2022/02/05 06:45:13;;;;;;;11.23;4.03;;;4.30;83.70;;;;;;5097591;28;20176;-84
2022/02/05 06:47:38;;;;;;;11.55;3.47;;;4.40;84.40;;;;;;5098234;28;20259;-85
2022/02/05 06:50:05;;;;;;;17.20;4.40;;;4.40;83.70;;;;;;5096452;28;20665;-85
2022/02/05 06:52:30;;;;;;;11.43;5.00;;;4.20;83.70;;;;;;5096254;28;20221;-84
2022/02/05 06:54:56;;;;;;;20.63;5.20;;;4.30;83.80;;;;;;5096676;28;20172;-84
2022/02/05 06:57:22;;;;;;;8.53;3.90;;;4.40;83.90;;;;;;5097194;28;20176;-85
2022/02/05 06:59:47;;;;;;;23.93;4.83;;;4.40;83.80;;;;;;5097538;28;20172;-86
2022/02/05 07:02:13;;;;;;;20.83;3.60;;;4.40;83.70;;;;;;5097814;28;20176;-84
2022/02/05 07:04:38;;;;;;;6.77;4.10;;;4.20;83.70;;;;;;5097453;28;20210;-84
2022/02/05 07:07:04;;;;;;;8.33;4.20;;;4.30;83.90;;;;;;5096902;28;20180;-84
2022/02/05 07:09:31;;;;;;;21.20;3.53;;;4.30;83.80;;;;;;5097210;28;20179;-85
2022/02/05 07:11:59;;;;;;;7.47;4.82;;;4.20;83.90;;;;;;5096590;28;20302;-85
2022/02/05 07:14:28;;;;;;;11.27;4.25;;;4.30;84.10;;;;;;5097004;28;20176;-85
2022/02/05 07:17:11;;;;;;;11.13;4.97;;;4.30;84.00;;;;;;5098487;28;20730;-85
2022/02/05 07:22:02;;;;;;;10.70;4.37;;;4.50;83.80;;;;;;5099169;28;20195;-85
2022/02/05 07:29:44;;;;;;;7.03;3.83;;;4.40;83.60;;;;;;5099275;28;20225;-85
2022/02/05 07:32:10;;;;;;;10.97;4.50;;;4.30;83.80;;;;;;5097675;28;20200;-84
2022/02/05 07:34:36;;;;;;;11.30;4.40;;;4.30;83.90;;;;;;5098687;28;20422;-85
2022/02/05 07:37:03;;;;;;;17.90;5.00;;;4.30;84.00;;;;;;5098357;28;20271;-85
2022/02/05 07:39:41;;;;;;;10.52;3.80;;;4.30;84.10;;;;;;5105866;28;20176;-87
2022/02/05 07:42:07;;;;;;;12.07;4.13;;;4.30;84.10;;;;;;5106947;28;20267;-85
2022/02/05 07:44:38;;;;;;;11.00;3.78;;;4.40;84.00;;;;;;5102944;28;20184;-86
2022/02/05 07:47:04;;;;;;;9.52;3.70;;;4.40;84.00;;;;;;5105624;28;20180;-85
2022/02/05 07:49:37;;;;;;;9.98;3.90;;;4.40;83.90;;;;;;5101751;28;20192;-84
2022/02/05 07:52:04;;;;;;;8.80;3.58;;;4.60;83.90;;;;;;5099788;28;20546;-84
2022/02/05 07:54:29;;;;;;;7.35;3.63;;;4.70;83.50;;;;;;5096843;28;20176;-84
2022/02/05 07:56:55;;;;;;;8.37;4.37;;;4.70;83.10;;;;;;5095904;28;20309;-86
2022/02/05 07:59:21;;;;;;;13.63;3.80;;;4.60;83.10;;;;;;5094725;28;20270;-85
2022/02/05 08:01:47;;;;;;;15.37;4.07;;;4.70;82.80;;;;;;5095385;28;20453;-84
2022/02/05 08:04:13;;;;;;;6.45;4.03;;;4.50;83.60;;;;;;5095281;28;20334;-85
2022/02/05 08:06:39;;;;;;;10.95;4.15;;;4.50;83.20;;;;;;5096483;28;20236;-85
2022/02/05 08:09:15;;;;;;;18.90;3.80;;;4.60;83.30;;;;;;5097043;28;20180;-85
2022/02/05 08:11:46;;;;;;;15.57;5.00;;;4.60;83.30;;;;;;5095161;28;20462;-85
2022/02/05 08:14:12;;;;;;;9.57;3.50;;;4.60;83.50;;;;;;5093819;28;20211;-86
2022/02/05 08:19:21;;;;;;;16.13;4.20;;;4.50;83.60;;;;;;5099915;28;20168;-84
2022/02/05 08:21:46;;;;;;;8.70;3.55;;;4.80;84.20;;;;;;5098011;28;20660;-84
2022/02/05 08:24:14;;;;;;;8.13;3.80;;;4.80;83.30;;;;;;5100705;28;20187;-84
2022/02/05 08:26:40;;;;;;;12.23;4.25;;;4.80;83.20;;;;;;5083446;28;20190;-85
2022/02/05 08:29:06;;;;;;;10.00;4.87;;;4.90;83.20;;;;;;5098207;28;20254;-85
2022/02/05 08:31:32;;;;;;;11.40;4.00;;;4.90;83.00;;;;;;5095582;28;20449;-85
2022/02/05 08:33:58;;;;;;;9.20;3.93;;;5.00;82.50;;;;;;5095695;28;20230;-85
2022/02/05 08:36:24;;;;;;;9.93;4.10;;;5.10;82.30;;;;;;5103717;28;20317;-84
2022/02/05 08:38:53;;;;;;;12.88;3.80;;;5.10;82.20;;;;;;5097181;28;20179;-84
2022/02/05 08:41:19;;;;;;;10.80;4.82;;;5.20;82.00;;;;;;5096235;28;20215;-89
2022/02/05 08:43:45;;;;;;;10.32;4.15;;;5.20;81.70;;;;;;5096243;28;20200;-89
2022/02/05 08:46:11;;;;;;;9.10;4.23;;;5.20;81.50;;;;;;5095527;28;20208;-88
2022/02/05 08:48:37;;;;;;;14.43;3.08;;;5.10;81.50;;;;;;5094198;28;20409;-88
2022/02/05 08:51:04;;;;;;;6.90;3.10;;;5.20;82.30;;;;;;5094941;28;20760;-88
2022/02/05 08:53:34;;;;;;;9.82;5.20;;;5.20;81.40;;;;;;5096620;28;20272;-88
2022/02/05 08:56:00;;;;;;;5.07;3.80;;;5.30;81.50;;;;;;5108151;28;20172;-88
2022/02/05 08:58:26;;;;;;;6.70;2.97;;;5.30;81.40;;;;;;5110382;28;20247;-88
2022/02/05 09:01:08;;;;;;;17.45;4.47;;;5.30;81.20;;;;;;5097491;28;20234;-87
2022/02/05 09:03:42;;;;;;;8.32;3.05;;;5.30;81.20;;;;;;5080837;28;20231;-86
2022/02/05 09:06:08;;;;;;;11.40;3.85;;;5.40;81.00;;;;;;5094313;28;20179;-84
2022/02/05 09:08:44;;;;;;;7.40;3.50;;;5.60;83.10;;;;;;5093927;28;20183;-85
2022/02/05 09:16:06;;;;;;;18.20;4.70;;;6.50;85.40;;;;;;5100695;28;20199;-84
2022/02/05 09:18:32;;;;;;;8.65;3.60;;;6.50;83.60;;;;;;5100454;28;20418;-85
2022/02/05 09:20:59;;;;;;;10.95;3.55;;;6.70;82.50;;;;;;5103641;28;20180;-85
2022/02/05 09:23:25;;;;;;;8.38;3.17;;;6.80;81.30;;;;;;5103954;28;20290;-83
2022/02/05 09:25:51;;;;;;;9.30;3.10;;;6.70;80.30;;;;;;5097203;28;20249;-85
2022/02/05 09:28:17;;;;;;;6.43;3.33;;;7.00;81.40;;;;;;5094661;28;20242;-84
2022/02/05 09:33:28;;;;;;;21.80;4.00;;;7.10;79.20;;;;;;5097956;28;20616;-84
2022/02/05 09:35:54;;;;;;;11.10;3.55;;;6.90;78.30;;;;;;5083404;28;20187;-84
2022/02/05 09:38:20;;;;;;;11.75;3.20;;;7.20;79.10;;;;;;5075041;28;20185;-83
2022/02/05 09:40:46;;;;;;;9.00;5.00;;;7.10;78.40;;;;;;5073469;28;20195;-83
2022/02/05 09:43:13;;;;;;;9.37;3.23;;;7.20;77.70;;;;;;5074821;28;20427;-84
2022/02/05 09:45:39;;;;;;;10.70;2.78;;;7.10;76.80;;;;;;5073509;28;20426;-83
2022/02/05 09:48:07;;;;;;;10.48;3.40;;;7.30;78.20;;;;;;5074775;28;20663;-86
2022/02/05 09:50:35;;;;;;;11.38;2.53;;;7.40;77.40;;;;;;5074257;28;20188;-86
2022/02/05 09:53:13;;;;;;;18.25;3.85;;;7.40;77.10;;;;;;5089169;28;20573;-86
2022/02/05 09:55:39;;;;;;;7.93;3.10;;;7.50;76.60;;;;;;5095993;28;20267;-89
2022/02/05 09:58:04;;;;;;;9.30;3.55;;;7.30;76.30;;;;;;5098265;28;20188;-89
2022/02/05 10:00:31;;;;;;;17.20;2.87;;;7.40;76.50;;;;;;5096145;28;20628;-89
2022/02/05 10:02:59;;;;;;;6.75;2.50;;;7.70;77.40;;;;;;5096839;28;20198;-88
2022/02/05 10:05:32;;;;;;;6.65;2.28;;;7.50;75.90;;;;;;5096682;28;20184;-90
2022/02/05 10:08:07;;;;;;;8.23;3.42;;;7.60;76.50;;;;;;5097202;28;20816;-90
2022/02/05 10:10:40;;;;;;;11.05;3.08;;;7.90;76.80;;;;;;5097073;28;20192;-90
2022/02/05 10:13:18;;;;;;;7.97;3.25;;;7.70;74.80;;;;;;5097462;28;20192;-89
2022/02/05 10:15:50;;;;;;;9.57;3.40;;;7.80;76.40;;;;;;5099189;28;20176;-89
2022/02/05 10:18:40;;;;;;;7.30;2.75;;;8.10;76.70;;;;;;5098501;28;20178;-89
2022/02/05 10:21:27;;;;;;;12.55;2.85;;;8.10;75.40;;;;;;5097570;28;20180;-89
2022/02/05 10:24:01;;;;;;;6.20;2.78;;;8.20;75.20;;;;;;5097586;28;20637;-90
2022/02/05 10:26:32;;;;;;;7.88;2.75;;;8.20;74.40;;;;;;5097650;28;20179;-89
2022/02/05 10:29:00;;;;;;;6.18;2.95;;;8.30;75.60;;;;;;5098937;28;20176;-89
2022/02/05 10:31:28;;;;;;;4.75;2.17;;;8.50;75.40;;;;;;5098597;28;20210;-88
2022/02/05 10:34:08;;;;;;;11.18;3.53;;;8.70;74.50;;;;;;5098179;28;20200;-89
2022/02/05 10:36:34;;;;;;;10.05;3.00;;;8.70;72.90;;;;;;5097830;28;20551;-89
2022/02/05 10:39:53;;;;;;;7.60;3.03;;;8.60;71.80;;;;;;5098404;28;20176;-90
2022/02/05 10:44:36;;;;;;;14.13;2.67;;;8.60;72.00;;;;;;5086612;28;20187;-88
2022/02/05 10:47:03;;;;;;;7.80;3.65;;;8.70;72.80;;;;;;5103500;28;20208;-88
2022/02/05 10:49:50;;;;;;;10.23;2.90;;;8.60;71.20;;;;;;5105985;28;20190;-89
2022/02/05 10:52:27;;;;;;;4.32;2.50;;;8.70;70.80;;;;;;5099831;28;20199;-89
2022/02/05 10:55:04;;;;;;;10.80;3.08;;;8.80;70.90;;;;;;5097440;28;20652;-91
2022/02/05 10:57:39;;;;;;;5.30;2.40;;;8.90;71.00;;;;;;5098686;28;20197;-90
2022/02/05 11:08:15;;;;;;;8.95;2.90;;;9.40;68.30;;;;;;5098149;28;20248;-87
2022/02/05 11:21:09;;;;;;;5.50;2.30;;;8.90;67.90;;;;;;5098348;28;20172;-86
2022/02/05 11:23:36;;;;;;;9.10;3.17;;;9.10;70.00;;;;;;5098447;28;20203;-87
2022/02/05 11:26:04;;;;;;;7.05;2.92;;;9.20;68.10;;;;;;5098000;28;20180;-87
2022/02/05 11:28:58;;;;;;;8.88;2.33;;;9.20;68.10;;;;;;5100740;28;20216;-87
2022/02/05 11:31:39;;;;;;;5.85;2.50;;;9.30;69.40;;;;;;5098021;28;20214;-86
2022/02/05 11:34:32;;;;;;;10.20;2.30;;;9.40;67.70;;;;;;5095098;28;20722;-84
2022/02/05 11:37:17;;;;;;;5.25;2.28;;;9.30;66.90;;;;;;5095603;28;20204;-85
2022/02/05 11:39:52;;;;;;;23.83;3.05;;;9.30;66.90;;;;;;5096268;28;20592;-87
2022/02/05 11:42:34;;;;;;;8.75;3.08;;;9.20;66.20;;;;;;5096645;28;20590;-86
2022/02/05 11:45:26;;;;;;;5.38;2.75;;;9.20;65.70;;;;;;5096366;28;20606;-86
2022/02/05 11:47:52;;;;;;;7.57;2.35;;;9.10;65.90;;;;;;5097676;28;20172;-85
2022/02/05 11:50:20;;;;;;;10.77;2.28;;;9.10;66.00;;;;;;5103118;28;20180;-86
2022/02/05 11:52:46;;;;;;;9.20;2.97;;;9.20;67.10;;;;;;5088175;28;20211;-85
2022/02/05 11:55:14;;;;;;;5.03;2.73;;;9.30;66.00;;;;;;5109991;28;20184;-85
2022/02/05 11:57:43;;;;;;;4.85;2.45;;;9.30;66.80;;;;;;5104902;28;20176;-87
2022/02/05 12:00:19;;;;;;;12.05;2.85;;;9.30;67.10;;;;;;5096362;28;20255;-86
2022/02/05 12:02:55;;;;;;;3.95;1.63;;;9.30;65.70;;;;;;5099776;28;20203;-86
2022/02/05 12:05:28;;;;;;;8.45;2.35;;;9.40;65.10;;;;;;5095884;28;20176;-87
2022/02/05 12:08:12;;;;;;;15.05;2.58;;;9.40;65.90;;;;;;5096082;28;20168;-86
2022/02/05 12:10:46;;;;;;;6.35;1.90;;;9.40;64.90;;;;;;5096695;28;20194;-88
2022/02/05 12:13:40;;;;;;;6.95;1.80;;;9.60;65.10;;;;;;5094846;28;20237;-88
2022/02/05 12:16:06;;;;;;;8.05;2.78;;;9.60;63.10;;;;;;5094398;28;20182;-87
2022/02/05 12:18:55;;;;;;;4.10;1.98;;;9.60;63.80;;;;;;5096064;28;20199;-87
2022/02/05 12:21:28;;;;;;;4.03;2.70;;;9.50;62.60;;;;;;5098703;28;20230;-87
2022/02/05 12:26:33;;;;;;;6.57;2.10;;;9.50;62.60;;;;;;5096080;28;20191;-87
2022/02/05 12:29:01;;;;;;;11.95;2.40;;;9.70;64.50;;;;;;5095810;28;20164;-87
2022/02/05 12:31:33;;;;;;;2.85;1.80;;;9.80;63.50;;;;;;5094500;28;20196;-88
2022/02/05 12:34:05;;;;;;;10.93;2.50;;;9.70;62.40;;;;;;5096184;28;20196;-85
2022/02/05 12:36:45;;;;;;;4.50;2.45;;;9.70;63.00;;;;;;5094684;28;20198;-87
2022/02/05 12:39:13;;;;;;;8.95;2.92;;;9.70;62.20;;;;;;5094758;28;20168;-88
2022/02/05 12:42:13;;;;;;;11.77;2.83;;;9.80;62.00;;;;;;5081641;28;20191;-87
2022/02/05 12:44:40;;;;;;;13.93;3.42;;;9.80;61.90;;;;;;5095757;28;20228;-88
2022/02/05 12:47:33;;;;;;;11.90;2.58;;;9.80;61.30;;;;;;5095847;28;20195;-86
2022/02/05 12:50:08;;;;;;;7.97;2.03;;;9.80;62.20;;;;;;5094666;28;20255;-87
2022/02/05 12:52:35;;;;;;;7.50;2.60;;;9.90;63.20;;;;;;5093128;28;20207;-86
2022/02/05 12:55:03;;;;;;;5.97;2.13;;;10.00;61.10;;;;;;5095606;28;20164;-87
2022/02/05 12:57:30;;;;;;;6.93;2.50;;;10.10;61.90;;;;;;5094050;28;20218;-87
2022/02/05 13:00:03;;;;;;;13.35;2.88;;;10.10;61.70;;;;;;5093998;28;20172;-87
2022/02/05 13:02:29;;;;;;;9.38;2.50;;;10.10;61.40;;;;;;5093837;28;20207;-87
2022/02/05 13:04:55;;;;;;;8.15;2.42;;;10.10;62.80;;;;;;5094761;28;20202;-88
2022/02/05 13:07:23;;;;;;;6.57;2.22;;;10.20;61.20;;;;;;5095694;28;20180;-87
2022/02/05 13:10:03;;;;;;;4.20;2.00;;;10.40;61.00;;;;;;5092823;28;20184;-86
2022/02/05 13:12:31;;;;;;;8.25;2.10;;;10.50;59.50;;;;;;5073029;28;20223;-87
2022/02/05 13:15:19;;;;;;;6.47;2.13;;;10.40;60.30;;;;;;5073772;28;20172;-86
2022/02/05 13:26:08;;;;;;;5.88;2.00;;;10.40;59.90;;;;;;5095512;28;20228;-86
2022/02/05 13:34:02;;;;;;;7.20;2.35;;;10.50;60.70;;;;;;5095004;28;20241;-86
2022/02/05 13:39:19;;;;;;;8.55;2.28;;;10.40;58.90;;;;;;5096458;28;20179;-86
2022/02/05 13:42:10;;;;;;;10.68;3.08;;;10.50;59.10;;;;;;5094304;28;20697;-86
2022/02/05 13:45:00;;;;;;;12.32;2.33;;;10.30;59.00;;;;;;5094000;28;20172;-86
2022/02/05 13:47:32;;;;;;;14.43;4.13;;;10.10;59.90;;;;;;5078983;28;20188;-86
2022/02/05 13:50:06;;;;;;;14.63;2.90;;;10.30;60.20;;;;;;5097331;28;20236;-85
2022/02/05 13:52:43;;;;;;;10.43;2.95;;;10.30;60.20;;;;;;5094125;28;20237;-86
2022/02/05 13:55:22;;;;;;;7.72;2.55;;;10.20;60.30;;;;;;5094730;28;20208;-86
2022/02/05 13:57:59;;;;;;;5.47;3.42;;;10.10;60.30;;;;;;5093956;28;20168;-86
2022/02/05 14:00:42;;;;;;;3.88;2.50;;;10.10;61.00;;;;;;5094150;28;20171;-86
2022/02/05 14:03:11;;;;;;;6.50;1.80;;;10.10;60.80;;;;;;5097031;28;20871;-86
2022/02/05 14:06:01;;;;;;;12.20;2.65;;;10.40;60.50;;;;;;5094945;28;20207;-85
2022/02/05 14:08:29;;;;;;;8.68;2.83;;;10.50;60.40;;;;;;5074731;28;20210;-86
2022/02/05 14:10:57;;;;;;;6.43;2.33;;;10.40;59.70;;;;;;5092066;28;20192;-86
2022/02/05 14:13:23;;;;;;;3.50;2.13;;;10.50;59.80;;;;;;5095151;28;20263;-90
2022/02/05 14:15:55;;;;;;;7.60;2.17;;;10.40;61.50;;;;;;5093884;28;20204;-90
2022/02/05 14:18:21;;;;;;;7.35;2.13;;;10.30;63.00;;;;;;5094579;28;20172;-90
2022/02/05 14:20:56;;;;;;;10.07;1.95;;;10.40;61.50;;;;;;5094834;28;20172;-90
2022/02/05 14:23:25;;;;;;;4.20;2.20;;;10.30;60.90;;;;;;5103535;28;20207;-89
2022/02/05 14:26:00;;;;;;;9.98;2.55;;;10.50;61.60;;;;;;5122501;28;20289;-89
2022/02/05 14:28:34;;;;;;;7.13;1.95;;;10.40;60.70;;;;;;5115797;28;20170;-90
2022/02/05 14:33:39;;;;;;;10.18;2.30;;;10.20;60.70;;;;;;5111215;28;20210;-90
2022/02/05 14:41:22;;;;;;;7.60;2.35;;;10.20;61.00;;;;;;5084225;28;20166;-89
2022/02/05 14:43:48;;;;;;;9.70;2.10;;;9.90;61.30;;;;;;5100491;28;20227;-88
2022/02/05 14:46:13;;;;;;;4.73;2.20;;;9.80;61.10;;;;;;5102319;28;20184;-91
2022/02/05 14:48:39;;;;;;;18.07;2.23;;;9.90;61.40;;;;;;5103753;28;20199;-90
2022/02/05 14:51:07;;;;;;;9.50;2.27;;;9.80;61.50;;;;;;5098583;28;20360;-90
2022/02/05 14:53:33;;;;;;;5.00;1.73;;;9.70;61.80;;;;;;5097050;28;20192;-90
2022/02/05 14:55:58;;;;;;;6.60;2.63;;;9.70;62.20;;;;;;5098699;28;20258;-90
2022/02/05 14:58:24;;;;;;;8.30;3.50;;;9.80;62.60;;;;;;5098052;28;20172;-89
2022/02/05 15:00:50;;;;;;;4.50;1.83;;;9.80;62.30;;;;;;5098083;28;20241;-88
2022/02/05 15:03:19;;;;;;;5.70;1.90;;;9.70;62.30;;;;;;5081457;28;20454;-90
2022/02/05 15:05:47;;;;;;;6.28;1.92;;;9.80;62.50;;;;;;5097529;28;20202;-91
2022/02/05 15:08:12;;;;;;;12.75;2.75;;;9.70;62.40;;;;;;5107841;28;20214;-90
2022/02/05 15:10:38;;;;;;;7.90;2.10;;;9.70;62.40;;;;;;5102386;28;20176;-89
2022/02/05 15:13:05;;;;;;;14.70;2.63;;;9.90;62.50;;;;;;5105581;28;20914;-90
2022/02/05 15:15:31;;;;;;;5.40;1.83;;;9.80;62.40;;;;;;5109807;28;20172;-89
2022/02/05 15:17:57;;;;;;;12.45;2.50;;;9.90;62.70;;;;;;5112297;28;20186;-89
2022/02/05 15:20:23;;;;;;;7.93;2.10;;;10.00;62.60;;;;;;5106260;28;20274;-90
2022/02/05 15:22:51;;;;;;;11.73;2.90;;;10.10;62.90;;;;;;5100273;28;20286;-90
2022/02/05 15:25:18;;;;;;;9.88;2.42;;;10.10;62.70;;;;;;5099345;28;20203;-89
2022/02/05 15:27:44;;;;;;;13.27;3.13;;;10.10;62.40;;;;;;5103913;28;20176;-89
2022/02/05 15:30:11;;;;;;;12.05;2.67;;;10.10;62.50;;;;;;5107397;28;20179;-89
2022/02/05 15:32:37;;;;;;;4.38;2.35;;;10.10;62.70;;;;;;5098739;28;20204;-89
2022/02/05 15:35:04;;;;;;;9.50;2.90;;;9.80;62.60;;;;;;5097931;28;20681;-89
2022/02/05 15:37:30;;;;;;;15.20;2.70;;;9.90;63.20;;;;;;5098216;28;20410;-89
2022/02/05 15:45:24;;;;;;;16.83;3.25;;;9.80;62.80;;;;;;5099634;28;20190;-89
2022/02/05 15:47:49;;;;;;;9.70;2.10;;;9.80;63.20;;;;;;5095829;28;20172;-88
2022/02/05 15:50:17;;;;;;;9.40;3.07;;;9.60;63.50;;;;;;5096171;28;20553;-90
2022/02/05 15:52:43;;;;;;;6.40;2.70;;;9.70;63.80;;;;;;5099154;28;20454;-89
2022/02/05 15:55:10;;;;;;;10.57;2.43;;;9.70;64.10;;;;;;5107837;28;20188;-89
2022/02/05 16:00:27;;;;;;;11.25;1.90;;;9.60;64.50;;;;;;5099577;28;20203;-90
2022/02/05 16:02:53;;;;;;;8.88;2.20;;;9.50;64.60;;;;;;5097648;28;20215;-89
2022/02/05 16:05:20;;;;;;;5.40;1.67;;;9.60;65.10;;;;;;5096512;28;20202;-88
2022/02/05 16:07:46;;;;;;;13.25;2.38;;;9.70;65.00;;;;;;5097192;28;20180;-89
2022/02/05 16:10:11;;;;;;;3.83;1.60;;;9.60;64.70;;;;;;5098330;28;20229;-89
2022/02/05 16:12:37;;;;;;;7.60;2.47;;;9.60;64.60;;;;;;5096754;28;20207;-89
2022/02/05 16:15:25;;;;;;;6.30;1.67;;;9.60;64.80;;;;;;5095883;28;20176;-90
2022/02/05 16:17:51;;;;;;;7.10;2.97;;;9.60;65.20;;;;;;5096390;28;20210;-89
2022/02/05 16:20:19;;;;;;;9.80;3.53;;;9.60;64.80;;;;;;5096490;28;20205;-90
2022/02/05 16:22:59;;;;;;;9.10;2.15;;;9.50;65.00;;;;;;5082716;28;20242;-89
2022/02/05 16:25:56;;;;;;;12.18;2.10;;;9.60;65.20;;;;;;5076120;28;20177;-89
2022/02/05 16:28:22;;;;;;;6.93;2.00;;;9.50;65.30;;;;;;5076063;28;20172;-89